createdAt,value
2023-01-02T00:01:35.789Z,15.50
2023-01-02T00:04:04.221Z,17.70
2023-01-02T00:06:37.055Z,16.50
2023-01-02T00:09:11.161Z,18.30
2023-01-02T00:11:39.663Z,18.10
2023-01-02T00:14:08.074Z,18.50
2023-01-02T00:16:36.459Z,17.70
2023-01-02T00:19:05.047Z,12.40
2023-01-02T00:21:33.389Z,15.30
2023-01-02T00:24:02.086Z,17.10
2023-01-02T00:26:31.031Z,17.70
2023-01-02T00:28:59.381Z,19.30
2023-01-02T00:31:27.959Z,16.40
2023-01-02T00:33:56.387Z,19.60
2023-01-02T00:36:26.898Z,15.50
2023-01-02T00:38:59.011Z,16.30
2023-01-02T00:41:27.575Z,15.90
2023-01-02T00:43:55.973Z,15.50
2023-01-02T00:46:24.491Z,16.70
2023-01-02T00:48:53.140Z,16.00
2023-01-02T00:51:21.669Z,18.40
2023-01-02T00:53:49.984Z,19.70
2023-01-02T00:56:18.358Z,16.00
2023-01-02T00:58:46.752Z,20.30
2023-01-02T01:01:15.587Z,17.50
2023-01-02T01:03:44.089Z,19.50
2023-01-02T01:06:14.790Z,19.60
2023-01-02T01:08:44.272Z,22.20
2023-01-02T01:11:14.715Z,20.00
2023-01-02T01:13:43.186Z,20.60
2023-01-02T01:16:14.274Z,17.60
2023-01-02T01:18:43.980Z,17.60
2023-01-02T01:21:17.674Z,20.10
2023-01-02T01:23:54.030Z,19.40
2023-01-02T01:26:23.613Z,22.40
2023-01-02T01:28:54.022Z,25.60
2023-01-02T01:31:23.908Z,24.00
2023-01-02T01:33:52.469Z,19.50
2023-01-02T01:36:24.329Z,26.30
2023-01-02T01:38:52.919Z,23.90
2023-01-02T01:41:23.865Z,20.70
2023-01-02T01:43:57.449Z,25.00
2023-01-02T01:46:33.320Z,20.30
2023-01-02T01:49:07.619Z,23.30
2023-01-02T01:51:43.103Z,16.10
2023-01-02T01:54:15.544Z,23.70
2023-01-02T01:56:49.607Z,24.80
2023-01-02T01:59:19.759Z,21.80
2023-01-02T02:01:51.237Z,18.10
2023-01-02T02:04:22.869Z,17.50
2023-01-02T02:06:52.111Z,20.90
2023-01-02T02:09:30.949Z,20.80
2023-01-02T02:11:59.391Z,23.50
2023-01-02T02:14:27.845Z,22.80
2023-01-02T02:17:14.465Z,21.40
2023-01-02T02:20:03.658Z,22.60
2023-01-02T02:23:05.896Z,22.70
2023-01-02T02:26:03.588Z,20.30
2023-01-02T02:29:00.159Z,22.80
2023-01-02T02:31:38.241Z,21.10
2023-01-02T02:34:23.845Z,22.50
2023-01-02T02:37:27.473Z,15.40
2023-01-02T02:40:13.561Z,23.10
2023-01-02T02:42:57.198Z,22.30
2023-01-02T02:45:37.787Z,20.90
2023-01-02T02:48:21.145Z,21.40
2023-01-02T02:51:06.032Z,22.00
2023-01-02T02:53:51.469Z,21.30
2023-01-02T02:56:23.749Z,20.60
2023-01-02T02:58:53.282Z,27.20
2023-01-02T03:01:30.555Z,17.90
2023-01-02T03:03:59.758Z,24.00
2023-01-02T03:06:46.270Z,21.10
2023-01-02T03:09:54.277Z,20.80
2023-01-02T03:12:30.876Z,17.70
2023-01-02T03:15:37.451Z,24.60
2023-01-02T03:18:14.694Z,20.00
2023-01-02T03:20:49.495Z,20.60
2023-01-02T03:23:24.555Z,20.30
2023-01-02T03:25:54.054Z,19.40
2023-01-02T03:28:26.704Z,17.70
2023-01-02T03:30:58.281Z,16.80
2023-01-02T03:33:32.002Z,20.10
2023-01-02T03:38:37.210Z,18.70
2023-01-02T03:41:11.296Z,18.50
2023-01-02T03:46:26.580Z,20.80
2023-01-02T03:49:06.079Z,16.70
2023-01-02T03:51:36.312Z,19.30
2023-01-02T03:54:06.205Z,18.50
2023-01-02T03:57:05.317Z,19.10
2023-01-02T03:59:54.402Z,20.80
2023-01-02T04:02:31.702Z,19.60
2023-01-02T04:05:09.845Z,18.40
2023-01-02T04:07:47.540Z,18.90
2023-01-02T04:10:43.019Z,15.50
2023-01-02T04:13:21.156Z,18.10
2023-01-02T04:15:52.788Z,17.50
2023-01-02T04:18:39.063Z,17.10
2023-01-02T04:21:15.661Z,14.10
2023-01-02T04:24:10.638Z,17.00
2023-01-02T04:26:47.338Z,15.60
2023-01-02T04:29:16.036Z,16.90
2023-01-02T04:32:17.742Z,16.10
2023-01-02T04:34:48.207Z,16.10
2023-01-02T04:37:31.213Z,17.20
2023-01-02T04:40:04.767Z,14.80
2023-01-02T04:42:33.183Z,16.30
2023-01-02T04:45:01.528Z,15.30
2023-01-02T04:47:29.936Z,19.40
2023-01-02T04:49:58.276Z,14.20
2023-01-02T04:52:28.669Z,16.80
2023-01-02T04:54:59.210Z,16.90
2023-01-02T04:57:27.713Z,17.80
2023-01-02T04:59:56.026Z,16.50
2023-01-02T05:02:24.512Z,20.60
2023-01-02T05:04:53.033Z,17.60
2023-01-02T05:07:21.355Z,15.40
2023-01-02T05:10:08.678Z,18.90
2023-01-02T05:12:39.337Z,18.40
2023-01-02T05:15:09.932Z,18.30
2023-01-02T05:17:40.452Z,16.90
2023-01-02T05:20:11.924Z,17.10
2023-01-02T05:23:00.341Z,16.10
2023-01-02T05:25:32.397Z,20.60
2023-01-02T05:28:02.039Z,18.00
2023-01-02T05:30:30.681Z,18.40
2023-01-02T05:32:59.085Z,17.50
2023-01-02T05:35:32.582Z,17.20
2023-01-02T05:38:02.450Z,16.30
2023-01-02T05:40:30.879Z,22.70
2023-01-02T05:43:00.127Z,15.30
2023-01-02T05:45:28.431Z,16.30
2023-01-02T05:47:56.846Z,16.90
2023-01-02T05:50:25.214Z,15.10
2023-01-02T05:52:53.647Z,14.80
2023-01-02T05:55:22.277Z,15.30
2023-01-02T05:57:56.161Z,19.20
2023-01-02T06:02:53.033Z,15.90
2023-01-02T06:05:21.632Z,20.80
2023-01-02T06:07:50.003Z,13.80
2023-01-02T06:10:54.369Z,15.40
2023-01-02T06:13:22.821Z,15.00
2023-01-02T06:15:51.851Z,15.90
2023-01-02T06:18:20.287Z,15.70
2023-01-02T06:20:48.911Z,16.70
2023-01-02T06:23:18.153Z,15.30
2023-01-02T06:25:46.523Z,18.70
2023-01-02T06:28:14.827Z,19.00
2023-01-02T06:30:43.441Z,20.20
2023-01-02T06:33:11.809Z,17.60
2023-01-02T06:38:32.398Z,16.60
2023-01-02T06:41:02.075Z,15.00
2023-01-02T06:43:32.257Z,15.90
2023-01-02T06:46:02.681Z,16.80
2023-01-02T06:48:35.030Z,18.30
2023-01-02T06:51:08.552Z,16.30
2023-01-02T06:53:39.353Z,18.00
2023-01-02T06:56:08.649Z,16.90
2023-01-02T06:58:38.500Z,16.20
2023-01-02T07:01:09.850Z,18.20
2023-01-02T07:03:38.358Z,16.80
2023-01-02T07:06:12.743Z,18.90
2023-01-02T07:09:44.393Z,15.40
2023-01-02T07:12:12.817Z,17.80
2023-01-02T07:14:41.222Z,17.20
2023-01-02T07:17:09.865Z,17.70
2023-01-02T07:19:38.190Z,17.30
2023-01-02T07:22:06.657Z,16.10
2023-01-02T07:24:35.043Z,14.40
2023-01-02T07:27:03.459Z,15.30
2023-01-02T07:29:31.924Z,14.50
2023-01-02T07:32:00.929Z,13.70
2023-01-02T07:34:29.407Z,13.90
2023-01-02T07:37:00.915Z,14.80
2023-01-02T07:39:29.435Z,16.80
2023-01-02T07:41:57.854Z,13.60
2023-01-02T07:44:26.193Z,15.90
2023-01-02T07:46:54.634Z,14.60
2023-01-02T07:49:23.073Z,15.70
2023-01-02T07:51:51.477Z,14.80
2023-01-02T07:54:19.916Z,15.00
2023-01-02T07:56:48.302Z,15.20
2023-01-02T07:59:16.705Z,14.10
2023-01-02T08:01:45.204Z,15.60
2023-01-02T08:04:13.649Z,16.70
2023-01-02T08:06:42.217Z,19.30
2023-01-02T08:09:49.830Z,13.30
2023-01-02T08:12:18.300Z,16.50
2023-01-02T08:14:46.901Z,15.50
2023-01-02T08:17:15.370Z,18.60
2023-01-02T08:19:43.712Z,14.10
2023-01-02T08:22:12.206Z,15.00
2023-01-02T08:24:40.693Z,17.30
2023-01-02T08:27:09.040Z,14.30
2023-01-02T08:29:37.441Z,20.00
2023-01-02T08:32:06.381Z,13.50
2023-01-02T08:34:35.444Z,14.70
2023-01-02T08:37:03.964Z,11.50
2023-01-02T08:39:32.592Z,11.30
2023-01-02T08:42:01.007Z,12.90
2023-01-02T08:44:29.275Z,15.40
2023-01-02T08:46:57.506Z,11.50
2023-01-02T08:49:25.867Z,14.60
2023-01-02T08:51:54.234Z,13.90
2023-01-02T08:54:22.620Z,11.40
2023-01-02T08:56:50.905Z,12.10
2023-01-02T08:59:19.234Z,11.70
2023-01-02T09:01:47.672Z,11.40
2023-01-02T09:04:16.139Z,12.30
2023-01-02T09:06:45.468Z,10.90
2023-01-02T09:09:40.745Z,11.10
2023-01-02T09:12:09.153Z,9.80
2023-01-02T09:14:37.601Z,11.80
2023-01-02T09:17:05.900Z,8.90
2023-01-02T09:19:34.397Z,10.70
2023-01-02T09:22:03.122Z,9.20
2023-01-02T09:24:31.515Z,10.10
2023-01-02T09:27:00.005Z,8.30
2023-01-02T09:29:28.356Z,9.30
2023-01-02T09:31:56.688Z,12.80
2023-01-02T09:34:24.974Z,8.40
2023-01-02T09:36:53.351Z,8.70
2023-01-02T09:39:23.596Z,7.50
2023-01-02T09:44:40.321Z,9.00
2023-01-02T09:47:11.264Z,7.70
2023-01-02T09:49:54.227Z,6.70
2023-01-02T09:52:28.816Z,8.40
2023-01-02T09:54:57.688Z,7.80
2023-01-02T09:57:28.899Z,9.70
2023-01-02T10:00:02.907Z,8.40
2023-01-02T10:02:54.705Z,8.00
2023-01-02T10:05:55.588Z,9.00
2023-01-02T10:08:59.898Z,18.00
2023-01-02T10:11:43.484Z,10.50
2023-01-02T10:14:29.400Z,9.70
2023-01-02T10:17:03.990Z,10.10
2023-01-02T10:19:54.347Z,8.20
2023-01-02T10:22:42.498Z,8.70
2023-01-02T10:25:19.620Z,8.60
2023-01-02T10:28:00.357Z,12.00
2023-01-02T10:30:37.373Z,8.30
2023-01-02T10:33:18.925Z,7.80
2023-01-02T10:36:05.688Z,11.40
2023-01-02T10:38:39.669Z,9.80
2023-01-02T10:41:09.160Z,9.10
2023-01-02T10:43:37.514Z,8.70
2023-01-02T10:46:06.091Z,8.40
2023-01-02T10:48:37.570Z,7.70
2023-01-02T10:51:12.993Z,8.50
2023-01-02T10:53:41.496Z,9.30
2023-01-02T10:56:20.058Z,6.80
2023-01-02T10:58:50.686Z,8.50
2023-01-02T11:01:22.639Z,8.50
2023-01-02T11:03:54.793Z,10.10
2023-01-02T11:06:31.180Z,9.80
2023-01-02T11:09:38.219Z,9.50
2023-01-02T11:12:12.328Z,7.60
2023-01-02T11:14:41.204Z,7.40
2023-01-02T11:17:15.089Z,9.80
2023-01-02T11:22:19.041Z,10.00
2023-01-02T11:25:03.758Z,8.10
2023-01-02T11:27:43.129Z,9.60
2023-01-02T11:30:49.923Z,8.70
2023-01-02T11:33:26.095Z,7.20
2023-01-02T11:36:12.692Z,6.30
2023-01-02T11:38:51.259Z,8.10
2023-01-02T11:42:23.039Z,7.60
2023-01-02T11:45:08.851Z,6.90
2023-01-02T11:47:55.761Z,7.30
2023-01-02T11:50:30.186Z,7.70
2023-01-02T11:53:03.945Z,8.80
2023-01-02T11:58:26.241Z,9.80
2023-01-02T12:01:25.561Z,8.30
2023-01-02T12:03:54.644Z,7.60
2023-01-02T12:06:46.250Z,9.10
2023-01-02T12:09:30.802Z,8.10
2023-01-02T12:12:10.427Z,8.80
2023-01-02T12:14:54.799Z,8.00
2023-01-02T12:17:23.482Z,9.40
2023-01-02T12:20:17.193Z,9.70
2023-01-02T12:23:07.981Z,7.50
2023-01-02T12:26:08.838Z,9.90
2023-01-02T12:28:55.879Z,9.40
2023-01-02T12:31:30.141Z,6.70
2023-01-02T12:34:23.039Z,6.00
2023-01-02T12:37:03.466Z,9.90
2023-01-02T12:39:34.620Z,9.10
2023-01-02T12:42:38.204Z,9.20
2023-01-02T12:45:20.473Z,8.40
2023-01-02T12:48:00.939Z,11.80
2023-01-02T12:51:03.418Z,13.00
2023-01-02T12:54:19.997Z,8.40
2023-01-02T12:57:12.280Z,8.90
2023-01-02T13:00:01.096Z,9.30
2023-01-02T13:02:41.364Z,6.20
2023-01-02T13:05:17.824Z,7.10
2023-01-02T13:07:53.659Z,8.80
2023-01-02T13:10:26.458Z,7.90
2023-01-02T13:12:58.502Z,7.40
2023-01-02T13:15:31.430Z,6.70
2023-01-02T13:18:08.392Z,8.60
2023-01-02T13:21:01.769Z,7.80
2023-01-02T13:23:34.840Z,8.20
2023-01-02T13:26:08.718Z,9.50
2023-01-02T13:28:44.324Z,9.00
2023-01-02T13:31:45.499Z,8.50
2023-01-02T13:34:14.071Z,10.50
2023-01-02T13:36:46.538Z,8.00
2023-01-02T13:39:23.157Z,7.80
2023-01-02T13:42:16.719Z,10.90
2023-01-02T13:44:50.158Z,7.60
2023-01-02T13:47:34.305Z,8.20
2023-01-02T13:50:03.283Z,9.20
2023-01-02T13:52:31.806Z,7.40
2023-01-02T13:55:21.696Z,7.20
2023-01-02T13:58:18.533Z,7.70
2023-01-02T14:00:54.458Z,9.10
2023-01-02T14:03:24.182Z,8.30
2023-01-02T14:05:59.178Z,6.80
2023-01-02T14:08:39.815Z,9.10
2023-01-02T14:11:15.829Z,17.10
2023-01-02T14:13:51.114Z,14.20
2023-01-02T14:16:22.673Z,10.60
2023-01-02T14:19:18.725Z,8.10
2023-01-02T14:21:51.978Z,8.40
2023-01-02T14:24:46.506Z,7.90
2023-01-02T14:27:20.805Z,7.60
2023-01-02T14:29:53.467Z,7.10
2023-01-02T14:32:39.502Z,7.10
2023-01-02T14:35:26.084Z,9.60
2023-01-02T14:37:57.118Z,11.30
2023-01-02T14:40:25.459Z,7.00
2023-01-02T14:43:18.178Z,7.40
2023-01-02T14:45:52.629Z,8.70
2023-01-02T14:48:31.004Z,10.40
2023-01-02T14:51:16.348Z,11.60
2023-01-02T14:53:52.417Z,7.70
2023-01-02T14:56:31.640Z,8.60
2023-01-02T14:59:01.370Z,14.00
2023-01-02T15:01:42.783Z,9.90
2023-01-02T15:04:25.418Z,8.10
2023-01-02T15:07:10.687Z,10.70
2023-01-02T15:10:06.817Z,10.00
2023-01-02T15:13:07.602Z,12.20
2023-01-02T15:15:48.659Z,10.20
2023-01-02T15:18:29.714Z,9.60
2023-01-02T15:21:07.438Z,10.60
2023-01-02T15:23:37.762Z,13.50
2023-01-02T15:26:31.493Z,10.10
2023-01-02T15:29:05.298Z,12.50
2023-01-02T15:31:34.433Z,12.40
2023-01-02T15:34:02.914Z,12.10
2023-01-02T15:36:38.156Z,14.80
2023-01-02T15:39:20.560Z,17.30
2023-01-02T15:41:53.163Z,13.00
2023-01-02T15:44:43.523Z,11.80
2023-01-02T15:47:13.853Z,11.70
2023-01-02T15:49:44.860Z,14.00
2023-01-02T15:52:26.840Z,13.30
2023-01-02T15:54:56.328Z,15.90
2023-01-02T15:57:29.164Z,13.10
2023-01-02T15:59:58.142Z,12.60
2023-01-02T16:02:44.805Z,12.30
2023-01-02T16:05:16.987Z,13.80
2023-01-02T16:07:51.377Z,14.10
2023-01-02T16:10:23.515Z,15.10
2023-01-02T16:12:58.040Z,14.20
2023-01-02T16:15:30.744Z,14.80
2023-01-02T16:17:59.401Z,14.30
2023-01-02T16:20:29.279Z,9.60
2023-01-02T16:23:02.560Z,11.70
2023-01-02T16:25:36.321Z,11.50
2023-01-02T16:28:36.233Z,11.70
2023-01-02T16:31:15.597Z,10.90
2023-01-02T16:33:46.215Z,10.90
2023-01-02T16:36:14.628Z,12.60
2023-01-02T16:39:02.865Z,11.80
2023-01-02T16:41:44.833Z,13.10
2023-01-02T16:44:16.898Z,14.00
2023-01-02T16:46:49.224Z,14.40
2023-01-02T16:49:24.241Z,9.90
2023-01-02T16:51:54.398Z,13.80
2023-01-02T16:54:22.877Z,14.60
2023-01-02T16:56:52.096Z,12.80
2023-01-02T16:59:20.567Z,16.50
2023-01-02T17:01:49.416Z,14.80
2023-01-02T17:04:18.117Z,12.20
2023-01-02T17:06:46.592Z,12.10
2023-01-02T17:09:15.805Z,12.40
2023-01-02T17:12:00.697Z,12.10
2023-01-02T17:14:33.462Z,12.40
2023-01-02T17:17:01.955Z,14.70
2023-01-02T17:19:30.324Z,11.50
2023-01-02T17:21:59.772Z,9.60
2023-01-02T17:24:28.154Z,11.90
2023-01-02T17:26:57.562Z,12.10
2023-01-02T17:29:25.946Z,13.80
2023-01-02T17:31:54.426Z,12.90
2023-01-02T17:34:23.643Z,14.40
2023-01-02T17:36:53.323Z,14.50
2023-01-02T17:39:21.854Z,11.20
2023-01-02T17:41:52.084Z,12.30
2023-01-02T17:44:20.830Z,13.40
2023-01-02T17:47:15.685Z,16.90
2023-01-02T17:49:42.032Z,12.40
2023-01-02T17:52:12.693Z,15.10
2023-01-02T17:54:42.083Z,14.30
2023-01-02T17:57:11.498Z,13.70
2023-01-02T17:59:41.453Z,15.20
2023-01-02T18:02:17.385Z,13.50
2023-01-02T18:04:51.107Z,13.50
2023-01-02T18:07:23.641Z,14.60
2023-01-02T18:10:07.523Z,14.50
2023-01-02T18:12:39.937Z,13.10
2023-01-02T18:15:14.827Z,11.40
2023-01-02T18:17:43.446Z,15.60
2023-01-02T18:20:14.456Z,16.60
2023-01-02T18:22:49.115Z,15.10
2023-01-02T18:25:21.703Z,16.40
2023-01-02T18:27:51.883Z,16.90
2023-01-02T18:30:24.568Z,14.80
2023-01-02T18:33:11.674Z,12.60
2023-01-02T18:35:57.448Z,15.50
2023-01-02T18:38:32.239Z,15.80
2023-01-02T18:41:01.322Z,13.40
2023-01-02T18:43:38.352Z,12.80
2023-01-02T18:46:17.006Z,12.10
2023-01-02T18:48:47.131Z,9.80
2023-01-02T18:51:24.780Z,13.20
2023-01-02T18:53:59.127Z,10.40
2023-01-02T18:56:31.472Z,13.90
2023-01-02T18:59:28.113Z,11.00
2023-01-02T19:02:02.729Z,13.00
2023-01-02T19:04:40.540Z,13.00
2023-01-02T19:07:35.872Z,11.50
2023-01-02T19:10:08.395Z,10.20
2023-01-02T19:13:07.952Z,11.00
2023-01-02T19:16:01.480Z,13.30
2023-01-02T19:18:45.277Z,11.70
2023-01-02T19:21:26.198Z,11.40
2023-01-02T19:24:06.603Z,12.80
2023-01-02T19:26:42.232Z,14.30
2023-01-02T19:29:13.727Z,18.70
2023-01-02T19:31:54.767Z,10.00
2023-01-02T19:34:41.823Z,10.30
2023-01-02T19:37:13.671Z,15.30
2023-01-02T19:39:44.969Z,13.40
2023-01-02T19:42:20.508Z,11.20
2023-01-02T19:44:59.179Z,11.60
2023-01-02T19:47:34.329Z,13.10
2023-01-02T19:50:07.300Z,12.60
2023-01-02T19:52:37.562Z,10.30
2023-01-02T19:55:22.090Z,9.10
2023-01-02T19:57:50.862Z,12.00
2023-01-02T20:00:21.099Z,12.80
2023-01-02T20:02:53.108Z,12.40
2023-01-02T20:05:27.882Z,12.00
2023-01-02T20:08:03.036Z,9.60
2023-01-02T20:10:34.911Z,12.00
2023-01-02T20:13:06.216Z,13.90
2023-01-02T20:15:36.992Z,13.90
2023-01-02T20:18:08.760Z,15.40
2023-01-02T20:20:38.721Z,11.70
2023-01-02T20:23:11.848Z,14.60
2023-01-02T20:25:40.833Z,14.50
2023-01-02T20:28:10.840Z,13.60
2023-01-02T20:30:40.118Z,12.40
2023-01-02T20:33:10.443Z,12.60
2023-01-02T20:35:39.962Z,12.70
2023-01-02T20:38:12.462Z,13.70
2023-01-02T20:40:41.855Z,10.20
2023-01-02T20:43:12.722Z,13.70
2023-01-02T20:45:42.162Z,15.50
2023-01-02T20:48:11.192Z,12.90
2023-01-02T20:50:41.542Z,12.50
2023-01-02T20:53:11.134Z,16.00
2023-01-02T20:55:42.298Z,14.10
2023-01-02T20:58:13.041Z,11.60
2023-01-02T21:00:43.431Z,11.40
2023-01-02T21:03:12.771Z,15.80
2023-01-02T21:05:42.031Z,9.80
2023-01-02T21:08:11.410Z,10.80
2023-01-02T21:10:43.090Z,14.20
2023-01-02T21:13:11.734Z,14.60
2023-01-02T21:15:47.512Z,13.00
2023-01-02T21:18:26.140Z,13.90
2023-01-02T21:21:07.205Z,10.00
2023-01-02T21:23:38.370Z,11.10
2023-01-02T21:26:11.415Z,16.70
2023-01-02T21:28:41.292Z,10.60
2023-01-02T21:31:11.052Z,13.00
2023-01-02T21:33:39.960Z,14.30
2023-01-02T21:36:08.961Z,13.50
2023-01-02T21:38:38.320Z,12.90
2023-01-02T21:41:25.655Z,14.10
2023-01-02T21:43:54.150Z,11.10
2023-01-02T21:46:23.052Z,11.40
2023-01-02T21:48:51.609Z,10.80
2023-01-02T21:51:20.005Z,13.30
2023-01-02T21:53:48.463Z,12.80
2023-01-02T21:56:16.868Z,11.90
2023-01-02T21:58:45.493Z,12.60
2023-01-02T22:01:14.368Z,12.70
2023-01-02T22:03:43.027Z,12.70
2023-01-02T22:06:11.458Z,12.20
2023-01-02T22:08:39.806Z,12.10
2023-01-02T22:11:48.618Z,12.90
2023-01-02T22:14:17.008Z,10.20
2023-01-02T22:16:45.563Z,10.00
2023-01-02T22:19:14.034Z,8.30
2023-01-02T22:21:42.493Z,8.00
2023-01-02T22:24:11.049Z,8.30
2023-01-02T22:26:41.143Z,8.90
2023-01-02T22:29:11.944Z,8.70
2023-01-02T22:31:41.372Z,5.60
2023-01-02T22:34:11.181Z,7.20
2023-01-02T22:36:39.648Z,6.60
2023-01-02T22:39:27.608Z,5.80
2023-01-02T22:42:57.642Z,5.80
2023-01-02T22:45:17.516Z,6.10
2023-01-02T22:47:46.426Z,4.10
2023-01-02T22:50:25.804Z,4.20
2023-01-02T22:52:55.192Z,2.90
2023-01-02T22:55:24.541Z,2.90
2023-01-02T22:57:52.980Z,2.90
2023-01-02T23:00:24.941Z,3.10
2023-01-02T23:02:53.386Z,2.00
2023-01-02T23:05:22.347Z,2.40
2023-01-02T23:07:50.896Z,1.80
2023-01-02T23:10:21.548Z,2.50
2023-01-02T23:12:49.995Z,3.10
2023-01-02T23:15:18.454Z,1.80
2023-01-02T23:18:05.467Z,3.30
2023-01-02T23:20:34.588Z,1.60
2023-01-02T23:23:02.967Z,2.00
2023-01-02T23:25:31.282Z,1.70
2023-01-02T23:28:00.051Z,1.80
2023-01-02T23:30:28.413Z,2.80
2023-01-02T23:32:56.747Z,1.50
2023-01-02T23:35:25.128Z,1.90
2023-01-02T23:37:53.434Z,3.00
2023-01-02T23:40:21.758Z,1.70
2023-01-02T23:42:50.152Z,1.30
2023-01-02T23:45:18.582Z,1.20
2023-01-02T23:47:46.985Z,2.30
2023-01-02T23:50:16.050Z,1.40
2023-01-02T23:52:44.332Z,1.40
2023-01-02T23:55:12.696Z,1.40
2023-01-02T23:57:41.035Z,1.80
